sensor_id;sensor_type;location;lat;lon;timestamp;pressure;altitude;pressure_sealevel;temperature
34310;BMP280;61664;48.112;11.662;2022-12-18T00:01:30;96474.44;;;0.16
34310;BMP280;61664;48.112;11.662;2022-12-18T00:04:00;96448.78;;;0.06
34310;BMP280;61664;48.112;11.662;2022-12-18T00:06:28;96470.38;;;0.22
34310;BMP280;61664;48.112;11.662;2022-12-18T00:08:57;96468.13;;;0.20
34310;BMP280;61664;48.112;11.662;2022-12-18T00:11:28;96461.75;;;0.21
34310;BMP280;61664;48.112;11.662;2022-12-18T00:13:58;96460.25;;;0.24
34310;BMP280;61664;48.112;11.662;2022-12-18T00:16:27;96453.53;;;0.26
34310;BMP280;61664;48.112;11.662;2022-12-18T00:18:59;96453.94;;;0.28
34310;BMP280;61664;48.112;11.662;2022-12-18T00:21:29;96466.72;;;0.30
34310;BMP280;61664;48.112;11.662;2022-12-18T00:23:59;96462.53;;;0.25
34310;BMP280;61664;48.112;11.662;2022-12-18T00:26:32;96466.28;;;0.24
34310;BMP280;61664;48.112;11.662;2022-12-18T00:29:21;96449.66;;;0.17
34310;BMP280;61664;48.112;11.662;2022-12-18T00:31:48;96459.44;;;0.20
34310;BMP280;61664;48.112;11.662;2022-12-18T00:34:14;96459.81;;;0.18
34310;BMP280;61664;48.112;11.662;2022-12-18T00:36:42;96476.69;;;0.17
34310;BMP280;61664;48.112;11.662;2022-12-18T00:39:12;96479.69;;;0.16
34310;BMP280;61664;48.112;11.662;2022-12-18T00:41:39;96491.28;;;0.11
34310;BMP280;61664;48.112;11.662;2022-12-18T00:44:25;96498.72;;;0.09
34310;BMP280;61664;48.112;11.662;2022-12-18T00:46:51;96487.38;;;0.02
34310;BMP280;61664;48.112;11.662;2022-12-18T00:49:20;96480.97;;;-0.01
34310;BMP280;61664;48.112;11.662;2022-12-18T00:51:47;96498.69;;;0.06
34310;BMP280;61664;48.112;11.662;2022-12-18T00:54:15;96481.31;;;-0.03
34310;BMP280;61664;48.112;11.662;2022-12-18T00:56:43;96490.72;;;-0.02
34310;BMP280;61664;48.112;11.662;2022-12-18T00:59:19;96500.56;;;0.05
34310;BMP280;61664;48.112;11.662;2022-12-18T01:01:46;96499.06;;;0.04
34310;BMP280;61664;48.112;11.662;2022-12-18T01:04:14;96491.81;;;-0.03
34310;BMP280;61664;48.112;11.662;2022-12-18T01:06:41;96494.38;;;-0.10
34310;BMP280;61664;48.112;11.662;2022-12-18T01:09:07;96500.38;;;-0.09
34310;BMP280;61664;48.112;11.662;2022-12-18T01:11:34;96490.53;;;-0.16
34310;BMP280;61664;48.112;11.662;2022-12-18T01:14:01;96497.69;;;-0.13
34310;BMP280;61664;48.112;11.662;2022-12-18T01:16:28;96508.59;;;-0.11
34310;BMP280;61664;48.112;11.662;2022-12-18T01:18:55;96505.56;;;-0.13
34310;BMP280;61664;48.112;11.662;2022-12-18T01:21:23;96511.50;;;-0.19
34310;BMP280;61664;48.112;11.662;2022-12-18T01:23:54;96527.66;;;-0.17
34310;BMP280;61664;48.112;11.662;2022-12-18T01:26:22;96521.13;;;-0.27
34310;BMP280;61664;48.112;11.662;2022-12-18T01:28:49;96530.47;;;-0.30
34310;BMP280;61664;48.112;11.662;2022-12-18T01:31:25;96535.72;;;-0.30
34310;BMP280;61664;48.112;11.662;2022-12-18T01:33:53;96538.00;;;-0.28
34310;BMP280;61664;48.112;11.662;2022-12-18T01:36:30;96539.97;;;-0.21
34310;BMP280;61664;48.112;11.662;2022-12-18T01:39:01;96535.53;;;-0.17
34310;BMP280;61664;48.112;11.662;2022-12-18T01:41:31;96546.13;;;-0.10
34310;BMP280;61664;48.112;11.662;2022-12-18T01:44:56;96545.38;;;-0.11
34310;BMP280;61664;48.112;11.662;2022-12-18T01:49:54;96547.56;;;-0.16
34310;BMP280;61664;48.112;11.662;2022-12-18T01:52:24;96554.31;;;-0.15
34310;BMP280;61664;48.112;11.662;2022-12-18T01:54:54;96554.31;;;-0.15
34310;BMP280;61664;48.112;11.662;2022-12-18T01:57:23;96556.25;;;-0.12
34310;BMP280;61664;48.112;11.662;2022-12-18T01:59:57;96552.84;;;-0.13
34310;BMP280;61664;48.112;11.662;2022-12-18T02:02:28;96548.75;;;-0.10
34310;BMP280;61664;48.112;11.662;2022-12-18T02:04:55;96549.94;;;-0.08
34310;BMP280;61664;48.112;11.662;2022-12-18T02:07:56;96548.06;;;-0.07
34310;BMP280;61664;48.112;11.662;2022-12-18T02:10:38;96536.34;;;-0.13
34310;BMP280;61664;48.112;11.662;2022-12-18T02:18:43;96534.56;;;-0.06
34310;BMP280;61664;48.112;11.662;2022-12-18T02:24:18;96533.25;;;0.08
34310;BMP280;61664;48.112;11.662;2022-12-18T02:27:04;96533.25;;;0.08
34310;BMP280;61664;48.112;11.662;2022-12-18T02:29:50;96529.38;;;-0.02
34310;BMP280;61664;48.112;11.662;2022-12-18T02:32:31;96529.72;;;-0.04
34310;BMP280;61664;48.112;11.662;2022-12-18T02:35:05;96532.00;;;-0.02
34310;BMP280;61664;48.112;11.662;2022-12-18T02:37:34;96535.03;;;0.00
34310;BMP280;61664;48.112;11.662;2022-12-18T02:40:04;96523.59;;;-0.11
34310;BMP280;61664;48.112;11.662;2022-12-18T02:42:32;96531.19;;;-0.06
34310;BMP280;61664;48.112;11.662;2022-12-18T02:44:59;96533.88;;;-0.03
34310;BMP280;61664;48.112;11.662;2022-12-18T02:47:31;96522.47;;;-0.10
34310;BMP280;61664;48.112;11.662;2022-12-18T02:50:38;96519.06;;;-0.14
34310;BMP280;61664;48.112;11.662;2022-12-18T02:56:29;96528.00;;;-0.19
34310;BMP280;61664;48.112;11.662;2022-12-18T02:59:13;96519.63;;;-0.28
34310;BMP280;61664;48.112;11.662;2022-12-18T03:02:09;96527.13;;;-0.26
34310;BMP280;61664;48.112;11.662;2022-12-18T03:04:53;96536.34;;;-0.13
34310;BMP280;61664;48.112;11.662;2022-12-18T03:07:55;96536.75;;;-0.11
34310;BMP280;61664;48.112;11.662;2022-12-18T03:10:35;96524.97;;;-0.21
34310;BMP280;61664;48.112;11.662;2022-12-18T03:13:13;96533.31;;;-0.15
34310;BMP280;61664;48.112;11.662;2022-12-18T03:15:48;96533.00;;;-0.10
34310;BMP280;61664;48.112;11.662;2022-12-18T03:19:11;96529.69;;;-0.07
34310;BMP280;61664;48.112;11.662;2022-12-18T03:21:50;96524.44;;;-0.07
34310;BMP280;61664;48.112;11.662;2022-12-18T03:24:22;96519.56;;;-0.05
34310;BMP280;61664;48.112;11.662;2022-12-18T03:26:56;96509.34;;;-0.10
34310;BMP280;61664;48.112;11.662;2022-12-18T03:29:33;96526.38;;;-0.01
34310;BMP280;61664;48.112;11.662;2022-12-18T03:32:10;96507.53;;;-0.06
34310;BMP280;61664;48.112;11.662;2022-12-18T03:34:42;96523.84;;;0.07
34310;BMP280;61664;48.112;11.662;2022-12-18T03:37:10;96513.59;;;-0.02
34310;BMP280;61664;48.112;11.662;2022-12-18T03:39:40;96517.81;;;0.03
34310;BMP280;61664;48.112;11.662;2022-12-18T03:42:13;96528.69;;;0.01
34310;BMP280;61664;48.112;11.662;2022-12-18T03:45:12;96536.84;;;-0.04
34310;BMP280;61664;48.112;11.662;2022-12-18T03:48:00;96538.00;;;-0.02
34310;BMP280;61664;48.112;11.662;2022-12-18T03:51:05;96546.34;;;0.04
34310;BMP280;61664;48.112;11.662;2022-12-18T03:53:37;96533.63;;;0.06
34310;BMP280;61664;48.112;11.662;2022-12-18T03:56:09;96516.59;;;-0.04
34310;BMP280;61664;48.112;11.662;2022-12-18T03:58:40;96535.19;;;0.11
34310;BMP280;61664;48.112;11.662;2022-12-18T04:01:11;96517.09;;;0.06
34310;BMP280;61664;48.112;11.662;2022-12-18T04:03:42;96532.59;;;0.14
34310;BMP280;61664;48.112;11.662;2022-12-18T04:06:10;96531.50;;;0.15
34310;BMP280;61664;48.112;11.662;2022-12-18T04:08:39;96540.19;;;0.19
34310;BMP280;61664;48.112;11.662;2022-12-18T04:11:06;96529.97;;;0.14
34310;BMP280;61664;48.112;11.662;2022-12-18T04:13:37;96541.78;;;0.27
34310;BMP280;61664;48.112;11.662;2022-12-18T04:16:05;96532.41;;;0.26
34310;BMP280;61664;48.112;11.662;2022-12-18T04:18:32;96539.97;;;0.32
34310;BMP280;61664;48.112;11.662;2022-12-18T04:20:59;96532.78;;;0.28
34310;BMP280;61664;48.112;11.662;2022-12-18T04:23:27;96539.88;;;0.24
34310;BMP280;61664;48.112;11.662;2022-12-18T04:25:54;96537.25;;;0.24
34310;BMP280;61664;48.112;11.662;2022-12-18T04:28:21;96547.38;;;0.22
34310;BMP280;61664;48.112;11.662;2022-12-18T04:30:49;96529.25;;;0.17
34310;BMP280;61664;48.112;11.662;2022-12-18T04:33:16;96532.56;;;0.11
34310;BMP280;61664;48.112;11.662;2022-12-18T04:35:43;96557.78;;;0.15
34310;BMP280;61664;48.112;11.662;2022-12-18T04:38:10;96543.38;;;0.06
34310;BMP280;61664;48.112;11.662;2022-12-18T04:40:38;96550.03;;;-0.01
34310;BMP280;61664;48.112;11.662;2022-12-18T04:43:06;96543.25;;;-0.02
34310;BMP280;61664;48.112;11.662;2022-12-18T04:45:34;96547.75;;;-0.02
34310;BMP280;61664;48.112;11.662;2022-12-18T04:48:02;96538.75;;;-0.01
34310;BMP280;61664;48.112;11.662;2022-12-18T04:50:30;96545.88;;;-0.02
34310;BMP280;61664;48.112;11.662;2022-12-18T04:52:57;96556.00;;;-0.04
34310;BMP280;61664;48.112;11.662;2022-12-18T04:55:24;96561.59;;;-0.05
34310;BMP280;61664;48.112;11.662;2022-12-18T04:57:52;96566.47;;;-0.07
34310;BMP280;61664;48.112;11.662;2022-12-18T05:00:19;96568.44;;;-0.01
34310;BMP280;61664;48.112;11.662;2022-12-18T05:02:46;96563.94;;;0.00
34310;BMP280;61664;48.112;11.662;2022-12-18T05:05:13;96566.50;;;-0.04
34310;BMP280;61664;48.112;11.662;2022-12-18T05:07:40;96561.22;;;-0.07
34310;BMP280;61664;48.112;11.662;2022-12-18T05:10:07;96565.34;;;-0.06
34310;BMP280;61664;48.112;11.662;2022-12-18T05:12:36;96568.34;;;-0.08
34310;BMP280;61664;48.112;11.662;2022-12-18T05:15:24;96571.75;;;-0.04
34310;BMP280;61664;48.112;11.662;2022-12-18T05:17:50;96564.84;;;-0.15
34310;BMP280;61664;48.112;11.662;2022-12-18T05:20:18;96578.00;;;-0.12
34310;BMP280;61664;48.112;11.662;2022-12-18T05:22:47;96569.34;;;-0.16
34310;BMP280;61664;48.112;11.662;2022-12-18T05:25:14;96574.63;;;-0.12
34310;BMP280;61664;48.112;11.662;2022-12-18T05:27:41;96577.38;;;-0.05
34310;BMP280;61664;48.112;11.662;2022-12-18T05:30:10;96564.47;;;-0.14
34310;BMP280;61664;48.112;11.662;2022-12-18T05:32:37;96576.22;;;-0.08
34310;BMP280;61664;48.112;11.662;2022-12-18T05:35:06;96564.06;;;-0.16
34310;BMP280;61664;48.112;11.662;2022-12-18T05:37:34;96578.44;;;-0.10
34310;BMP280;61664;48.112;11.662;2022-12-18T05:40:09;96583.63;;;-0.13
34310;BMP280;61664;48.112;11.662;2022-12-18T05:42:37;96591.59;;;-0.10
34310;BMP280;61664;48.112;11.662;2022-12-18T05:45:05;96590.13;;;-0.07
34310;BMP280;61664;48.112;11.662;2022-12-18T05:47:32;96579.44;;;-0.18
34310;BMP280;61664;48.112;11.662;2022-12-18T05:49:59;96582.16;;;-0.11
34310;BMP280;61664;48.112;11.662;2022-12-18T05:52:26;96601.03;;;-0.05
34310;BMP280;61664;48.112;11.662;2022-12-18T05:54:53;96595.66;;;-0.12
34310;BMP280;61664;48.112;11.662;2022-12-18T05:57:20;96600.16;;;-0.13
34310;BMP280;61664;48.112;11.662;2022-12-18T05:59:47;96601.25;;;-0.14
34310;BMP280;61664;48.112;11.662;2022-12-18T06:02:14;96601.09;;;-0.24
34310;BMP280;61664;48.112;11.662;2022-12-18T06:04:41;96608.97;;;-0.24
34310;BMP280;61664;48.112;11.662;2022-12-18T06:07:07;96603.75;;;-0.21
34310;BMP280;61664;48.112;11.662;2022-12-18T06:09:34;96608.25;;;-0.21
34310;BMP280;61664;48.112;11.662;2022-12-18T06:12:01;96611.72;;;-0.17
34310;BMP280;61664;48.112;11.662;2022-12-18T06:14:28;96595.44;;;-0.26
34310;BMP280;61664;48.112;11.662;2022-12-18T06:16:55;96608.03;;;-0.13
34310;BMP280;61664;48.112;11.662;2022-12-18T06:19:22;96604.13;;;-0.22
34310;BMP280;61664;48.112;11.662;2022-12-18T06:21:48;96609.38;;;-0.22
34310;BMP280;61664;48.112;11.662;2022-12-18T06:24:16;96590.38;;;-0.35
34310;BMP280;61664;48.112;11.662;2022-12-18T06:26:43;96601.94;;;-0.40
34310;BMP280;61664;48.112;11.662;2022-12-18T06:29:10;96589.66;;;-0.55
34310;BMP280;61664;48.112;11.662;2022-12-18T06:31:36;96611.28;;;-0.62
34310;BMP280;61664;48.112;11.662;2022-12-18T06:34:04;96621.69;;;-0.69
34310;BMP280;61664;48.112;11.662;2022-12-18T06:36:32;96615.53;;;-0.76
34310;BMP280;61664;48.112;11.662;2022-12-18T06:38:59;96623.25;;;-0.83
34310;BMP280;61664;48.112;11.662;2022-12-18T06:41:26;96625.88;;;-0.83
34310;BMP280;61664;48.112;11.662;2022-12-18T06:43:53;96626.28;;;-0.81
34310;BMP280;61664;48.112;11.662;2022-12-18T06:46:25;96624.63;;;-0.70
34310;BMP280;61664;48.112;11.662;2022-12-18T06:48:52;96631.97;;;-0.60
34310;BMP280;61664;48.112;11.662;2022-12-18T06:51:23;96631.25;;;-0.57
34310;BMP280;61664;48.112;11.662;2022-12-18T06:53:50;96631.06;;;-0.48
34310;BMP280;61664;48.112;11.662;2022-12-18T06:56:17;96638.72;;;-0.40
34310;BMP280;61664;48.112;11.662;2022-12-18T06:58:44;96642.56;;;-0.34
34310;BMP280;61664;48.112;11.662;2022-12-18T07:01:12;96646.28;;;-0.35
34310;BMP280;61664;48.112;11.662;2022-12-18T07:03:41;96650.72;;;-0.39
34310;BMP280;61664;48.112;11.662;2022-12-18T07:06:20;96649.44;;;-0.48
34310;BMP280;61664;48.112;11.662;2022-12-18T07:08:48;96660.97;;;-0.53
34310;BMP280;61664;48.112;11.662;2022-12-18T07:11:16;96660.28;;;-0.50
34310;BMP280;61664;48.112;11.662;2022-12-18T07:13:45;96660.41;;;-0.43
34310;BMP280;61664;48.112;11.662;2022-12-18T07:16:19;96652.25;;;-0.38
34310;BMP280;61664;48.112;11.662;2022-12-18T07:18:52;96664.44;;;-0.30
34310;BMP280;61664;48.112;11.662;2022-12-18T07:21:21;96672.41;;;-0.22
34310;BMP280;61664;48.112;11.662;2022-12-18T07:23:48;96669.09;;;-0.19
34310;BMP280;61664;48.112;11.662;2022-12-18T07:26:19;96666.47;;;-0.19
34310;BMP280;61664;48.112;11.662;2022-12-18T07:28:46;96681.53;;;-0.16
34310;BMP280;61664;48.112;11.662;2022-12-18T07:31:20;96688.34;;;-0.12
34310;BMP280;61664;48.112;11.662;2022-12-18T07:33:48;96684.16;;;-0.16
34310;BMP280;61664;48.112;11.662;2022-12-18T07:36:16;96675.13;;;-0.19
34310;BMP280;61664;48.112;11.662;2022-12-18T07:38:46;96677.75;;;-0.19
34310;BMP280;61664;48.112;11.662;2022-12-18T07:41:14;96668.00;;;-0.18
34310;BMP280;61664;48.112;11.662;2022-12-18T07:43:41;96675.97;;;-0.11
34310;BMP280;61664;48.112;11.662;2022-12-18T07:46:11;96678.34;;;-0.06
34310;BMP280;61664;48.112;11.662;2022-12-18T07:48:42;96665.78;;;-0.16
34310;BMP280;61664;48.112;11.662;2022-12-18T07:51:15;96671.59;;;-0.26
34310;BMP280;61664;48.112;11.662;2022-12-18T07:53:44;96671.78;;;-0.35
34310;BMP280;61664;48.112;11.662;2022-12-18T07:56:12;96668.69;;;-0.41
34310;BMP280;61664;48.112;11.662;2022-12-18T07:58:58;96674.78;;;-0.37
34310;BMP280;61664;48.112;11.662;2022-12-18T08:01:26;96678.56;;;-0.34
34310;BMP280;61664;48.112;11.662;2022-12-18T08:03:53;96675.88;;;-0.38
34310;BMP280;61664;48.112;11.662;2022-12-18T08:06:20;96677.00;;;-0.39
34310;BMP280;61664;48.112;11.662;2022-12-18T08:08:54;96682.66;;;-0.37
34310;BMP280;61664;48.112;11.662;2022-12-18T08:11:24;96683.69;;;-0.41
34310;BMP280;61664;48.112;11.662;2022-12-18T08:13:52;96679.66;;;-0.35
34310;BMP280;61664;48.112;11.662;2022-12-18T08:16:20;96670.84;;;-0.46
34310;BMP280;61664;48.112;11.662;2022-12-18T08:18:48;96685.75;;;-0.50
34310;BMP280;61664;48.112;11.662;2022-12-18T08:21:25;96702.53;;;-0.36
34310;BMP280;61664;48.112;11.662;2022-12-18T08:23:55;96690.59;;;-0.33
34310;BMP280;61664;48.112;11.662;2022-12-18T08:26:24;96703.53;;;-0.24
34310;BMP280;61664;48.112;11.662;2022-12-18T08:28:54;96707.63;;;-0.27
34310;BMP280;61664;48.112;11.662;2022-12-18T08:31:23;96706.78;;;-0.31
34310;BMP280;61664;48.112;11.662;2022-12-18T08:33:52;96708.38;;;-0.26
34310;BMP280;61664;48.112;11.662;2022-12-18T08:36:21;96708.50;;;-0.19
34310;BMP280;61664;48.112;11.662;2022-12-18T08:38:50;96706.66;;;-0.19
34310;BMP280;61664;48.112;11.662;2022-12-18T08:41:18;96697.66;;;-0.18
34310;BMP280;61664;48.112;11.662;2022-12-18T08:43:45;96690.25;;;-0.32
34310;BMP280;61664;48.112;11.662;2022-12-18T08:46:40;96709.47;;;-0.27
34310;BMP280;61664;48.112;11.662;2022-12-18T08:49:11;96713.56;;;-0.30
34310;BMP280;61664;48.112;11.662;2022-12-18T08:54:06;96689.69;;;-0.41
34310;BMP280;61664;48.112;11.662;2022-12-18T08:56:34;96710.31;;;-0.23
34310;BMP280;61664;48.112;11.662;2022-12-18T08:59:01;96709.31;;;-0.35
34310;BMP280;61664;48.112;11.662;2022-12-18T09:01:28;96708.78;;;-0.44
34310;BMP280;61664;48.112;11.662;2022-12-18T09:03:55;96708.31;;;-0.49
34310;BMP280;61664;48.112;11.662;2022-12-18T09:06:23;96714.38;;;-0.45
34310;BMP280;61664;48.112;11.662;2022-12-18T09:08:50;96726.59;;;-0.34
34310;BMP280;61664;48.112;11.662;2022-12-18T09:11:24;96722.06;;;-0.17
34310;BMP280;61664;48.112;11.662;2022-12-18T09:13:53;96715.81;;;-0.09
34310;BMP280;61664;48.112;11.662;2022-12-18T09:16:22;96718.69;;;0.05
34310;BMP280;61664;48.112;11.662;2022-12-18T09:18:58;96724.53;;;0.18
34310;BMP280;61664;48.112;11.662;2022-12-18T09:21:33;96723.91;;;0.24
34310;BMP280;61664;48.112;11.662;2022-12-18T09:24:03;96721.00;;;0.33
34310;BMP280;61664;48.112;11.662;2022-12-18T09:26:35;96706.78;;;0.38
34310;BMP280;61664;48.112;11.662;2022-12-18T09:29:03;96718.84;;;0.39
34310;BMP280;61664;48.112;11.662;2022-12-18T09:31:30;96701.28;;;0.20
34310;BMP280;61664;48.112;11.662;2022-12-18T09:33:56;96696.16;;;0.04
34310;BMP280;61664;48.112;11.662;2022-12-18T09:36:23;96707.66;;;-0.04
34310;BMP280;61664;48.112;11.662;2022-12-18T09:38:50;96730.84;;;0.13
34310;BMP280;61664;48.112;11.662;2022-12-18T09:41:50;96710.94;;;0.12
34310;BMP280;61664;48.112;11.662;2022-12-18T09:44:32;96720.97;;;0.29
34310;BMP280;61664;48.112;11.662;2022-12-18T09:47:19;96717.31;;;0.38
34310;BMP280;61664;48.112;11.662;2022-12-18T09:49:59;96715.97;;;0.47
34310;BMP280;61664;48.112;11.662;2022-12-18T09:52:37;96722.16;;;0.58
34310;BMP280;61664;48.112;11.662;2022-12-18T09:55:34;96710.06;;;0.54
34310;BMP280;61664;48.112;11.662;2022-12-18T09:58:33;96709.34;;;0.57
34310;BMP280;61664;48.112;11.662;2022-12-18T10:01:10;96704.09;;;0.57
34310;BMP280;61664;48.112;11.662;2022-12-18T10:03:37;96697.56;;;0.47
34310;BMP280;61664;48.112;11.662;2022-12-18T10:06:13;96685.69;;;0.31
34310;BMP280;61664;48.112;11.662;2022-12-18T10:15:19;96693.91;;;0.29
34310;BMP280;61664;48.112;11.662;2022-12-18T10:20:44;96670.69;;;0.35
34310;BMP280;61664;48.112;11.662;2022-12-18T10:23:41;96692.75;;;0.53
34310;BMP280;61664;48.112;11.662;2022-12-18T10:26:14;96681.13;;;0.54
34310;BMP280;61664;48.112;11.662;2022-12-18T10:28:43;96670.91;;;0.49
34310;BMP280;61664;48.112;11.662;2022-12-18T10:31:23;96678.91;;;0.56
34310;BMP280;61664;48.112;11.662;2022-12-18T10:33:53;96669.31;;;0.41
34310;BMP280;61664;48.112;11.662;2022-12-18T10:36:23;96660.03;;;0.24
34310;BMP280;61664;48.112;11.662;2022-12-18T10:38:51;96667.47;;;0.18
34310;BMP280;61664;48.112;11.662;2022-12-18T10:43:47;96646.09;;;-0.03
34310;BMP280;61664;48.112;11.662;2022-12-18T10:46:18;96656.03;;;0.07
34310;BMP280;61664;48.112;11.662;2022-12-18T10:51:42;96654.91;;;0.35
34310;BMP280;61664;48.112;11.662;2022-12-18T10:54:23;96651.34;;;0.46
34310;BMP280;61664;48.112;11.662;2022-12-18T10:56:51;96659.91;;;0.70
34310;BMP280;61664;48.112;11.662;2022-12-18T10:59:20;96670.63;;;0.80
34310;BMP280;61664;48.112;11.662;2022-12-18T11:01:56;96662.50;;;0.93
34310;BMP280;61664;48.112;11.662;2022-12-18T11:04:29;96667.84;;;1.00
34310;BMP280;61664;48.112;11.662;2022-12-18T11:07:05;96660.72;;;1.00
34310;BMP280;61664;48.112;11.662;2022-12-18T11:10:00;96673.19;;;1.07
34310;BMP280;61664;48.112;11.662;2022-12-18T11:12:29;96671.44;;;1.18
34310;BMP280;61664;48.112;11.662;2022-12-18T11:14:57;96667.31;;;1.17
34310;BMP280;61664;48.112;11.662;2022-12-18T11:17:33;96673.78;;;1.23
34310;BMP280;61664;48.112;11.662;2022-12-18T11:20:06;96666.56;;;1.16
34310;BMP280;61664;48.112;11.662;2022-12-18T11:22:36;96677.22;;;1.27
34310;BMP280;61664;48.112;11.662;2022-12-18T11:25:19;96687.03;;;1.30
34310;BMP280;61664;48.112;11.662;2022-12-18T11:28:05;96672.66;;;1.24
34310;BMP280;61664;48.112;11.662;2022-12-18T11:30:37;96677.13;;;1.20
34310;BMP280;61664;48.112;11.662;2022-12-18T11:33:15;96680.16;;;1.22
34310;BMP280;61664;48.112;11.662;2022-12-18T11:36:02;96678.41;;;1.33
34310;BMP280;61664;48.112;11.662;2022-12-18T11:38:35;96680.41;;;1.47
34310;BMP280;61664;48.112;11.662;2022-12-18T11:43:59;96658.41;;;1.66
34310;BMP280;61664;48.112;11.662;2022-12-18T11:46:43;96616.91;;;1.56
34310;BMP280;61664;48.112;11.662;2022-12-18T11:49:34;96656.34;;;1.86
34310;BMP280;61664;48.112;11.662;2022-12-18T11:54:39;96659.53;;;1.65
34310;BMP280;61664;48.112;11.662;2022-12-18T12:00:21;96639.94;;;1.25
34310;BMP280;61664;48.112;11.662;2022-12-18T12:03:13;96653.16;;;1.29
34310;BMP280;61664;48.112;11.662;2022-12-18T12:06:01;96650.88;;;1.27
34310;BMP280;61664;48.112;11.662;2022-12-18T12:11:47;96648.69;;;1.36
34310;BMP280;61664;48.112;11.662;2022-12-18T12:25:49;96632.13;;;1.36
34310;BMP280;61664;48.112;11.662;2022-12-18T12:28:52;96632.22;;;1.43
34310;BMP280;61664;48.112;11.662;2022-12-18T12:34:20;96635.63;;;1.47
34310;BMP280;61664;48.112;11.662;2022-12-18T12:40:02;96612.03;;;1.58
34310;BMP280;61664;48.112;11.662;2022-12-18T12:43:19;96617.19;;;1.43
34310;BMP280;61664;48.112;11.662;2022-12-18T12:45:55;96635.06;;;1.27
34310;BMP280;61664;48.112;11.662;2022-12-18T12:48:55;96599.00;;;0.98
34310;BMP280;61664;48.112;11.662;2022-12-18T12:51:49;96628.78;;;1.02
34310;BMP280;61664;48.112;11.662;2022-12-18T12:54:25;96617.41;;;0.94
34310;BMP280;61664;48.112;11.662;2022-12-18T12:57:13;96625.34;;;0.98
34310;BMP280;61664;48.112;11.662;2022-12-18T13:00:15;96623.91;;;1.04
34310;BMP280;61664;48.112;11.662;2022-12-18T13:05:48;96625.94;;;1.17
34310;BMP280;61664;48.112;11.662;2022-12-18T13:08:29;96627.88;;;1.21
34310;BMP280;61664;48.112;11.662;2022-12-18T13:11:04;96636.53;;;1.21
34310;BMP280;61664;48.112;11.662;2022-12-18T13:14:39;96632.59;;;1.08
34310;BMP280;61664;48.112;11.662;2022-12-18T13:22:35;96638.81;;;1.26
34310;BMP280;61664;48.112;11.662;2022-12-18T13:25:30;96648.78;;;1.43
34310;BMP280;61664;48.112;11.662;2022-12-18T13:28:12;96619.72;;;1.36
34310;BMP280;61664;48.112;11.662;2022-12-18T13:30:56;96641.81;;;1.62
34310;BMP280;61664;48.112;11.662;2022-12-18T13:36:29;96652.06;;;1.70
34310;BMP280;61664;48.112;11.662;2022-12-18T13:39:21;96640.75;;;1.70
34310;BMP280;61664;48.112;11.662;2022-12-18T13:44:37;96647.84;;;1.62
34310;BMP280;61664;48.112;11.662;2022-12-18T13:47:43;96644.41;;;1.58
34310;BMP280;61664;48.112;11.662;2022-12-18T13:50:26;96628.50;;;1.48
34310;BMP280;61664;48.112;11.662;2022-12-18T13:53:03;96639.13;;;1.58
34310;BMP280;61664;48.112;11.662;2022-12-18T13:55:32;96639.53;;;1.60
34310;BMP280;61664;48.112;11.662;2022-12-18T13:58:06;96631.53;;;1.50
34310;BMP280;61664;48.112;11.662;2022-12-18T14:00:44;96641.59;;;1.40
34310;BMP280;61664;48.112;11.662;2022-12-18T14:03:28;96626.13;;;1.35
34310;BMP280;61664;48.112;11.662;2022-12-18T14:06:06;96630.34;;;1.10
34310;BMP280;61664;48.112;11.662;2022-12-18T14:08:39;96634.31;;;0.93
34310;BMP280;61664;48.112;11.662;2022-12-18T14:11:20;96630.31;;;0.76
34310;BMP280;61664;48.112;11.662;2022-12-18T14:13:49;96641.25;;;0.78
34310;BMP280;61664;48.112;11.662;2022-12-18T14:16:17;96622.28;;;0.66
34310;BMP280;61664;48.112;11.662;2022-12-18T14:18:57;96622.34;;;0.69
34310;BMP280;61664;48.112;11.662;2022-12-18T14:21:49;96613.28;;;0.67
34310;BMP280;61664;48.112;11.662;2022-12-18T14:24:20;96633.69;;;0.73
34310;BMP280;61664;48.112;11.662;2022-12-18T14:26:50;96639.56;;;0.63
34310;BMP280;61664;48.112;11.662;2022-12-18T14:29:28;96625.28;;;0.38
34310;BMP280;61664;48.112;11.662;2022-12-18T14:32:24;96649.56;;;0.27
34310;BMP280;61664;48.112;11.662;2022-12-18T14:34:53;96655.50;;;0.21
34310;BMP280;61664;48.112;11.662;2022-12-18T14:37:25;96642.78;;;0.00
34310;BMP280;61664;48.112;11.662;2022-12-18T14:40:00;96647.78;;;0.09
34310;BMP280;61664;48.112;11.662;2022-12-18T14:42:37;96631.91;;;0.02
34310;BMP280;61664;48.112;11.662;2022-12-18T14:45:42;96649.28;;;0.10
34310;BMP280;61664;48.112;11.662;2022-12-18T14:48:40;96641.84;;;0.12
34310;BMP280;61664;48.112;11.662;2022-12-18T14:53:42;96635.16;;;0.18
34310;BMP280;61664;48.112;11.662;2022-12-18T14:56:43;96627.22;;;0.14
34310;BMP280;61664;48.112;11.662;2022-12-18T15:02:17;96628.34;;;0.13
34310;BMP280;61664;48.112;11.662;2022-12-18T15:04:45;96640.78;;;0.16
34310;BMP280;61664;48.112;11.662;2022-12-18T15:07:18;96633.47;;;0.06
34310;BMP280;61664;48.112;11.662;2022-12-18T15:10:21;96637.84;;;-0.02
34310;BMP280;61664;48.112;11.662;2022-12-18T15:20:53;96625.22;;;-0.19
34310;BMP280;61664;48.112;11.662;2022-12-18T15:23:50;96643.88;;;-0.01
34310;BMP280;61664;48.112;11.662;2022-12-18T15:26:20;96631.84;;;-0.02
34310;BMP280;61664;48.112;11.662;2022-12-18T15:28:56;96625.06;;;-0.03
34310;BMP280;61664;48.112;11.662;2022-12-18T15:31:30;96638.69;;;0.03
34310;BMP280;61664;48.112;11.662;2022-12-18T15:36:29;96633.25;;;-0.08
34310;BMP280;61664;48.112;11.662;2022-12-18T15:38:57;96635.13;;;-0.09
34310;BMP280;61664;48.112;11.662;2022-12-18T15:41:35;96631.91;;;-0.21
34310;BMP280;61664;48.112;11.662;2022-12-18T15:44:14;96636.03;;;-0.20
34310;BMP280;61664;48.112;11.662;2022-12-18T15:46:43;96609.13;;;-0.37
34310;BMP280;61664;48.112;11.662;2022-12-18T15:49:10;96635.53;;;-0.30
34310;BMP280;61664;48.112;11.662;2022-12-18T15:51:41;96631.91;;;-0.41
34310;BMP280;61664;48.112;11.662;2022-12-18T15:54:13;96630.00;;;-0.44
34310;BMP280;61664;48.112;11.662;2022-12-18T15:56:42;96621.56;;;-0.53
34310;BMP280;61664;48.112;11.662;2022-12-18T15:59:27;96605.09;;;-0.73
34310;BMP280;61664;48.112;11.662;2022-12-18T16:01:56;96624.91;;;-0.75
34310;BMP280;61664;48.112;11.662;2022-12-18T16:04:23;96630.44;;;-0.80
34310;BMP280;61664;48.112;11.662;2022-12-18T16:06:51;96628.81;;;-0.89
34310;BMP280;61664;48.112;11.662;2022-12-18T16:09:38;96635.28;;;-0.82
34310;BMP280;61664;48.112;11.662;2022-12-18T16:12:14;96629.56;;;-0.88